createdAt,value
2023-03-12T00:01:54.013Z,83.83
2023-03-12T00:04:27.506Z,83.84
2023-03-12T00:07:01.214Z,83.80
2023-03-12T00:09:37.470Z,83.87
2023-03-12T00:12:11.872Z,83.98
2023-03-12T00:14:45.264Z,84.08
2023-03-12T00:17:18.780Z,84.15
2023-03-12T00:19:55.498Z,84.20
2023-03-12T00:22:29.270Z,84.28
2023-03-12T00:25:02.399Z,84.24
2023-03-12T00:27:35.956Z,84.20
2023-03-12T00:30:12.127Z,84.29
2023-03-12T00:32:45.644Z,84.23
2023-03-12T00:35:19.123Z,84.38
2023-03-12T00:37:52.399Z,84.47
2023-03-12T00:40:25.741Z,84.52
2023-03-12T00:42:59.455Z,84.59
2023-03-12T00:45:32.818Z,84.72
2023-03-12T00:48:06.545Z,84.78
2023-03-12T00:50:40.090Z,84.69
2023-03-12T00:53:13.430Z,84.76
2023-03-12T00:55:47.076Z,84.96
2023-03-12T00:58:20.539Z,84.94
2023-03-12T01:00:54.063Z,85.01
2023-03-12T01:03:27.659Z,85.06
2023-03-12T01:06:01.645Z,85.15
2023-03-12T01:08:35.060Z,85.05
2023-03-12T01:11:08.804Z,85.17
2023-03-12T01:13:42.203Z,85.23
2023-03-12T01:16:15.656Z,85.27
2023-03-12T01:18:49.102Z,85.32
2023-03-12T01:21:22.632Z,85.21
2023-03-12T01:23:56.663Z,85.28
2023-03-12T01:26:30.355Z,85.27
2023-03-12T01:29:03.775Z,85.36
2023-03-12T01:31:37.497Z,85.38
2023-03-12T01:34:13.771Z,85.26
2023-03-12T01:36:47.878Z,85.40
2023-03-12T01:39:21.294Z,85.44
2023-03-12T01:41:54.537Z,85.52
2023-03-12T01:44:28.206Z,85.51
2023-03-12T01:47:01.687Z,85.54
2023-03-12T01:49:36.331Z,85.61
2023-03-12T01:52:12.223Z,85.56
2023-03-12T01:54:49.507Z,85.64
2023-03-12T01:57:26.050Z,85.64
2023-03-12T02:00:04.646Z,85.68
2023-03-12T02:02:40.473Z,85.74
2023-03-12T02:05:17.895Z,85.87
2023-03-12T02:07:51.911Z,85.88
2023-03-12T02:10:26.153Z,85.89
2023-03-12T02:12:59.721Z,85.94
2023-03-12T02:15:33.656Z,86.03
2023-03-12T02:18:08.745Z,86.06
2023-03-12T02:20:45.618Z,86.16
2023-03-12T02:23:22.654Z,86.22
2023-03-12T02:25:57.918Z,86.25
2023-03-12T02:28:33.854Z,86.29
2023-03-12T02:31:08.205Z,86.40
2023-03-12T02:33:41.956Z,86.51
2023-03-12T02:36:15.724Z,86.54
2023-03-12T02:38:50.973Z,86.61
2023-03-12T02:41:27.223Z,86.63
2023-03-12T02:44:04.984Z,86.69
2023-03-12T02:46:42.105Z,86.67
2023-03-12T02:49:17.007Z,86.75
2023-03-12T02:51:50.986Z,86.74
2023-03-12T02:54:25.714Z,86.79
2023-03-12T02:57:00.312Z,86.83
2023-03-12T02:59:34.575Z,86.85
2023-03-12T03:02:11.580Z,86.88
2023-03-12T03:04:45.173Z,86.96
2023-03-12T03:07:18.726Z,87.03
2023-03-12T03:09:52.208Z,87.11
2023-03-12T03:12:25.667Z,87.14
2023-03-12T03:14:59.795Z,87.20
2023-03-12T03:17:34.104Z,87.17
2023-03-12T03:20:11.510Z,87.20
2023-03-12T03:22:45.090Z,87.35
2023-03-12T03:25:20.468Z,87.41
2023-03-12T03:27:53.972Z,87.45
2023-03-12T03:30:27.504Z,87.43
2023-03-12T03:33:00.807Z,87.53
2023-03-12T03:35:34.952Z,87.58
2023-03-12T03:38:08.644Z,87.53
2023-03-12T03:40:42.032Z,87.66
2023-03-12T03:43:15.931Z,87.66
2023-03-12T03:45:52.247Z,87.72
2023-03-12T03:48:26.033Z,87.85
2023-03-12T03:51:02.317Z,87.88
2023-03-12T03:53:37.213Z,87.97
2023-03-12T03:56:13.221Z,88.00
2023-03-12T03:58:48.721Z,88.04
2023-03-12T04:01:22.950Z,88.07
2023-03-12T04:03:56.935Z,88.21
2023-03-12T04:06:30.879Z,88.25
2023-03-12T04:09:04.695Z,88.27
2023-03-12T04:11:39.042Z,88.36
2023-03-12T04:14:12.960Z,88.32
2023-03-12T04:16:47.326Z,88.36
2023-03-12T04:19:32.637Z,88.40
2023-03-12T04:22:40.810Z,88.51
2023-03-12T04:26:08.608Z,88.62
2023-03-12T04:29:11.500Z,88.71
2023-03-12T04:31:51.548Z,88.82
2023-03-12T04:34:25.151Z,89.03
2023-03-12T04:36:58.636Z,89.11
2023-03-12T04:39:31.957Z,89.27
2023-03-12T04:42:05.663Z,89.28
2023-03-12T04:44:41.152Z,89.31
2023-03-12T04:47:14.981Z,89.36
2023-03-12T04:49:48.700Z,89.42
2023-03-12T04:52:22.043Z,89.53
2023-03-12T04:54:55.803Z,89.54
2023-03-12T04:57:29.529Z,89.61
2023-03-12T05:00:03.547Z,89.77
2023-03-12T05:02:37.823Z,89.87
2023-03-12T05:05:13.522Z,89.93
2023-03-12T05:07:47.747Z,90.01
2023-03-12T05:10:21.731Z,90.06
2023-03-12T05:12:55.346Z,90.04
2023-03-12T05:15:29.426Z,90.10
2023-03-12T05:18:03.058Z,90.21
2023-03-12T05:20:36.574Z,90.29
2023-03-12T05:23:10.401Z,90.36
2023-03-12T05:25:44.167Z,90.34
2023-03-12T05:28:17.499Z,90.42
2023-03-12T05:30:51.015Z,90.42
2023-03-12T05:33:24.223Z,90.32
2023-03-12T05:35:58.214Z,90.56
2023-03-12T05:38:32.137Z,90.61
2023-03-12T05:41:06.027Z,90.51
2023-03-12T05:43:40.949Z,90.60
2023-03-12T05:46:14.685Z,90.69
2023-03-12T05:48:48.623Z,90.69
2023-03-12T05:51:23.390Z,90.84
2023-03-12T05:53:56.830Z,90.85
2023-03-12T05:56:31.270Z,90.91
2023-03-12T05:59:05.214Z,90.78
2023-03-12T06:01:39.254Z,90.93
2023-03-12T06:04:12.711Z,91.04
2023-03-12T06:06:46.050Z,91.04
2023-03-12T06:09:19.364Z,91.02
2023-03-12T06:11:53.099Z,91.08
2023-03-12T06:14:27.036Z,91.06
2023-03-12T06:17:00.924Z,91.24
2023-03-12T06:19:34.864Z,91.31
2023-03-12T06:22:08.770Z,91.32
2023-03-12T06:24:42.707Z,91.25
2023-03-12T06:27:16.272Z,91.26
2023-03-12T06:29:50.027Z,91.27
2023-03-12T06:32:26.216Z,91.37
2023-03-12T06:35:02.492Z,91.49
2023-03-12T06:37:35.801Z,91.49
2023-03-12T06:44:06.626Z,91.75
2023-03-12T06:46:42.718Z,91.73
2023-03-12T06:49:17.049Z,91.77
2023-03-12T06:51:50.333Z,91.72
2023-03-12T06:54:23.657Z,91.83
2023-03-12T06:56:57.108Z,91.75
2023-03-12T06:59:30.487Z,91.71
2023-03-12T07:02:03.957Z,91.64
2023-03-12T07:04:37.413Z,91.63
2023-03-12T07:07:12.560Z,91.74
2023-03-12T07:09:45.904Z,91.87
2023-03-12T07:12:19.269Z,91.93
2023-03-12T07:14:52.700Z,91.96
2023-03-12T07:17:26.455Z,92.02
2023-03-12T07:19:59.759Z,91.88
2023-03-12T07:22:34.447Z,91.97
2023-03-12T07:25:09.966Z,91.97
2023-03-12T07:27:43.371Z,92.04
2023-03-12T07:30:18.083Z,92.00
2023-03-12T07:32:51.544Z,92.03
2023-03-12T07:35:25.070Z,92.17
2023-03-12T07:37:58.647Z,92.27
2023-03-12T07:40:33.635Z,92.19
2023-03-12T07:43:09.258Z,92.28
2023-03-12T07:45:43.223Z,92.30
2023-03-12T07:48:20.093Z,92.38
2023-03-12T07:50:53.289Z,92.14
2023-03-12T07:53:26.991Z,92.15
2023-03-12T07:56:00.917Z,92.17
2023-03-12T07:58:36.751Z,92.15
